Mister Mac — WDH8821 — position and weather

sailwx.info

Track history (hours):
 
Tides and Currents Weather Stations Pressure Air Temp Water Temp Dewpoint Dewpoint Depression Visibility Wind Speed Wind Dir Waves Ship Positions

Mister Mac

Owner: McDonough Project Services LP, Metairie, LA. More information available from US FCC via Universal Licensing System and Coast Guard Vessel Documentation Center.

Last reported at 2018-Jun-10 05:12 UTC. Time now 2018-Jun-21 16:24 UTC.
Position N 29°34' W 090°23'.
Warning: this ship's position is 11 days out of date.

Length 25 m; draft 3 m.

Type: Towing. MMSI: 367661820.

Date/timePositionNaut miles runAvg speedWind from/ knotsBaromVisibWave heightAir tempDewpointWater temp
2018-Jun-10 05:12N 29°34' W 090°23'3 4.8
2018-Jun-10 04:34N 29°33' W 090°27'0 5.5
2018-Jun-10 04:30N 29°33' W 090°27'3 5.1
2018-Jun-10 04:01N 29°34' W 090°30'2 4.8
2018-Jun-10 03:31N 29°34' W 090°33'2 4.6
2018-Jun-10 03:00N 29°35' W 090°35'2 3.7
2018-Jun-10 02:30N 29°35' W 090°37'2 4.7
2018-Jun-10 02:00N 29°36' W 090°40'2 4.4
2018-Jun-10 01:30N 29°37' W 090°42'2 3.8
2018-Jun-10 01:01N 29°35' W 090°43'1 2.9
2018-Jun-10 00:30N 29°34' W 090°44'1 2.3
2018-Jun-10 00:01N 29°33' W 090°45'0 0.0
2018-Jun-09 23:31N 29°33' W 090°45'1 2.1
2018-Jun-09 23:00N 29°32' W 090°46'3 6.0
2018-Jun-09 22:30N 29°32' W 090°49'3 6.0
2018-Jun-09 21:58N 29°32' W 090°53'3 6.1
2018-Jun-09 21:25N 29°34' W 090°56'53 3.9
2018-Jun-09 07:51N 29°51' W 091°54'1 3.4
2018-Jun-09 07:30N 29°51' W 091°56'2 4.9
2018-Jun-09 07:01N 29°50' W 091°58'3 5.3
2018-Jun-09 06:31N 29°49' W 092°01'3 5.4
2018-Jun-09 06:00N 29°48' W 092°04'3 5.2
2018-Jun-09 05:31N 29°47' W 092°07'2 4.3
2018-Jun-09 05:00N 29°47' W 092°09'2 3.7
2018-Jun-09 04:30N 29°47' W 092°12'1 1.7
2018-Jun-09 04:01N 29°47' W 092°12'1 1.5
2018-Jun-09 03:31N 29°47' W 092°13'1 1.8
2018-Jun-09 03:00N 29°48' W 092°14'0 0.2
2018-Jun-09 02:31N 29°48' W 092°14'0 0.2
2018-Jun-09 02:01N 29°48' W 092°14'1 1.6
2018-Jun-09 01:30N 29°48' W 092°15'0 0.0
2018-Jun-09 01:00N 29°48' W 092°15'0 0.3
2018-Jun-09 00:31N 29°48' W 092°15'2 3.8
2018-Jun-09 00:01N 29°49' W 092°17'41 3.9
2018-Jun-08 13:32N 29°56' W 093°04'0 3.3
2018-Jun-08 13:31N 29°56' W 093°04'2 3.9
2018-Jun-08 12:57N 29°56' W 093°07'2 3.5
2018-Jun-08 12:30N 29°56' W 093°08'2 3.1
2018-Jun-08 12:00N 29°57' W 093°10'1 2.6
2018-Jun-08 11:31N 29°58' W 093°11'2 3.1
2018-Jun-08 10:59N 29°59' W 093°12'1 3.1
2018-Jun-08 10:30N 30°00' W 093°13'2 3.2
2018-Jun-08 10:00N 30°01' W 093°14'2 3.3
2018-Jun-08 09:31N 30°02' W 093°16'1 2.3
2018-Jun-08 09:00N 30°04' W 093°16'2 3.7
2018-Jun-08 08:30N 30°05' W 093°17'0 0.9
2018-Jun-08 08:01N 30°05' W 093°18'1 1.1
2018-Jun-08 07:31N 30°06' W 093°18'1 1.5
2018-Jun-08 07:01N 30°06' W 093°19'0 0.1
2018-Jun-08 06:29N 30°06' W 093°19'0 0.0
2018-Jun-08 06:01N 30°06' W 093°19'0 0.0
2018-Jun-08 05:30N 30°06' W 093°19'0 0.0
2018-Jun-08 05:01N 30°06' W 093°19'0 0.0
2018-Jun-08 04:30N 30°06' W 093°19'0 0.0
2018-Jun-08 04:00N 30°06' W 093°19'0 0.0
2018-Jun-08 03:28N 30°06' W 093°19'0 0.0
2018-Jun-08 02:59N 30°06' W 093°19'0 0.0
2018-Jun-08 02:31N 30°06' W 093°19'0 0.0
2018-Jun-08 02:01N 30°06' W 093°19'0 0.0
2018-Jun-08 01:30N 30°06' W 093°19'0 0.0
2018-Jun-08 00:59N 30°06' W 093°19'0 0.0
2018-Jun-08 00:30N 30°06' W 093°19'0 0.0
2018-Jun-08 00:01N 30°06' W 093°19'0 0.0
2018-Jun-07 23:31N 30°06' W 093°19'0 0.0
2018-Jun-07 23:01N 30°06' W 093°19'1 2.4
2018-Jun-07 22:30N 30°05' W 093°20'2 3.9
2018-Jun-07 22:01N 30°04' W 093°21'2 4.3
2018-Jun-07 21:31N 30°04' W 093°24'3 5.4
2018-Jun-07 21:00N 30°04' W 093°27'3 5.2
2018-Jun-07 20:31N 30°04' W 093°30'3 5.3
2018-Jun-07 19:54N 30°04' W 093°33'2 5.4
2018-Jun-07 19:28N 30°04' W 093°36'3 6.0
2018-Jun-07 18:59N 30°04' W 093°40'3 5.6
2018-Jun-07 18:30N 30°03' W 093°43'3 5.6
2018-Jun-07 18:01N 30°01' W 093°45'3 6.7
2018-Jun-07 17:30N 29°59' W 093°48'3 5.9
2018-Jun-07 17:01N 29°58' W 093°51'4 7.1
2018-Jun-07 16:31N 29°55' W 093°53'3 6.7
2018-Jun-07 16:01N 29°53' W 093°56'3 6.3
2018-Jun-07 15:30N 29°50' W 093°57'2 3.4
2018-Jun-07 15:00N 29°49' W 093°59'2 3.5
2018-Jun-07 14:30N 29°48' W 094°01'2 4.8
2018-Jun-07 14:01N 29°46' W 094°03'2 4.9
2018-Jun-07 13:31N 29°45' W 094°05'3 5.0
2018-Jun-07 13:00N 29°43' W 094°07'3 5.1
2018-Jun-07 12:30N 29°42' W 094°09'2 4.7
2018-Jun-07 12:01N 29°41' W 094°12'2 4.9
2018-Jun-07 11:30N 29°40' W 094°14'2 5.0
2018-Jun-07 11:01N 29°39' W 094°17'2 4.0
2018-Jun-07 10:29N 29°38' W 094°19'4 4.2
2018-Jun-07 09:33N 29°36' W 094°23'0 4.0
2018-Jun-07 09:30N 29°36' W 094°23'3 2.6
2018-Jun-07 08:24N 29°34' W 094°26'12 4.6
2018-Jun-07 05:42N 29°28' W 094°39'1 5.3
2018-Jun-07 05:29N 29°28' W 094°40'2 2.7
2018-Jun-07 04:50N 29°27' W 094°42'3 3.1
2018-Jun-07 03:58N 29°25' W 094°44'2 3.1
2018-Jun-07 03:19N 29°24' W 094°46'2 5.0
2018-Jun-07 02:52N 29°22' W 094°47'2 5.5
2018-Jun-07 02:28N 29°24' W 094°49'11 7.5
2018-Jun-07 01:04N 29°33' W 094°55'1 7.8
2018-Jun-07 00:59N 29°34' W 094°55'5 7.6
2018-Jun-07 00:22N 29°38' W 094°58'3 7.6
2018-Jun-07 00:00N 29°40' W 094°59'11 0.8
2018-Jun-06 10:17N 29°45' W 095°11'0 0.0
2018-Jun-06 09:22N 29°45' W 095°11'0 0.0
2018-Jun-06 08:54N 29°45' W 095°11'0 0.0
2018-Jun-06 08:26N 29°45' W 095°11'0 0.0
2018-Jun-06 07:51N 29°45' W 095°11'0 0.0
2018-Jun-06 06:12N 29°45' W 095°11'0 0.0
2018-Jun-06 05:52N 29°45' W 095°11'0 0.0
2018-Jun-06 05:26N 29°45' W 095°11'0 0.0
2018-Jun-06 04:35N 29°45' W 095°11'0 0.1
2018-Jun-06 04:27N 29°45' W 095°11'  
2018-Jun-03 12:59N 29°47' W 095°05'0 0.0
2018-Jun-03 12:27N 29°47' W 095°05'0 0.0
2018-Jun-03 09:52N 29°47' W 095°05'0 0.0
2018-Jun-03 09:23N 29°47' W 095°05'0 0.0
2018-Jun-03 08:58N 29°47' W 095°05'0 0.0
2018-Jun-03 08:28N 29°47' W 095°05'0 0.0
2018-Jun-03 07:59N 29°47' W 095°05'0 0.0
2018-Jun-03 07:30N 29°47' W 095°05'0 0.0
2018-Jun-03 07:00N 29°47' W 095°05'0 0.0
2018-Jun-03 06:25N 29°47' W 095°05'0 0.0
2018-Jun-03 05:59N 29°47' W 095°05'0 0.0
2018-Jun-03 05:30N 29°47' W 095°05'0 0.0
2018-Jun-03 05:00N 29°47' W 095°05'0 0.0
2018-Jun-03 04:27N 29°47' W 095°05'0 0.0
2018-Jun-03 03:59N 29°47' W 095°05'0 0.0
2018-Jun-03 03:30N 29°47' W 095°05'2 0.1
2018-Jun-02 01:38N 29°46' W 095°05'2 5.9
2018-Jun-02 01:14N 29°44' W 095°03'2 5.4
2018-Jun-02 00:55N 29°43' W 095°01'2 5.3
2018-Jun-02 00:30N 29°42' W 094°59'3 5.9
2018-Jun-02 00:00N 29°39' W 094°58'3 6.1
2018-Jun-01 23:30N 29°36' W 094°57'3 6.2
2018-Jun-01 23:00N 29°33' W 094°55'3 6.1
2018-Jun-01 22:30N 29°31' W 094°53'5 6.3
2018-Jun-01 21:47N 29°27' W 094°50'  
Track history (hours):
 
Tides and Currents Weather Stations Pressure Air Temp Water Temp Dewpoint Dewpoint Depression Visibility Wind Speed Wind Dir Waves Ship Positions

Mister Mac

Owner: McDonough Project Services LP, Metairie, LA. More information available from US FCC via Universal Licensing System and Coast Guard Vessel Documentation Center.

Last reported at 2018-Jun-10 05:12 UTC. Time now 2018-Jun-21 16:24 UTC.
Position N 29°34' W 090°23'.
Warning: this ship's position is 11 days out of date.

Length 25 m; draft 3 m.

Type: Towing. MMSI: 367661820.

Date/timePositionNaut miles runAvg speedWind from/ knotsBaromVisibWave heightAir tempDewpointWater temp
2018-Jun-10 05:12N 29°34' W 090°23'3 4.8
2018-Jun-10 04:34N 29°33' W 090°27'0 5.5
2018-Jun-10 04:30N 29°33' W 090°27'3 5.1
2018-Jun-10 04:01N 29°34' W 090°30'2 4.8
2018-Jun-10 03:31N 29°34' W 090°33'2 4.6
2018-Jun-10 03:00N 29°35' W 090°35'2 3.7
2018-Jun-10 02:30N 29°35' W 090°37'2 4.7
2018-Jun-10 02:00N 29°36' W 090°40'2 4.4
2018-Jun-10 01:30N 29°37' W 090°42'2 3.8
2018-Jun-10 01:01N 29°35' W 090°43'1 2.9
2018-Jun-10 00:30N 29°34' W 090°44'1 2.3
2018-Jun-10 00:01N 29°33' W 090°45'0 0.0
2018-Jun-09 23:31N 29°33' W 090°45'1 2.1
2018-Jun-09 23:00N 29°32' W 090°46'3 6.0
2018-Jun-09 22:30N 29°32' W 090°49'3 6.0
2018-Jun-09 21:58N 29°32' W 090°53'3 6.1
2018-Jun-09 21:25N 29°34' W 090°56'53 3.9
2018-Jun-09 07:51N 29°51' W 091°54'1 3.4
2018-Jun-09 07:30N 29°51' W 091°56'2 4.9
2018-Jun-09 07:01N 29°50' W 091°58'3 5.3
2018-Jun-09 06:31N 29°49' W 092°01'3 5.4
2018-Jun-09 06:00N 29°48' W 092°04'3 5.2
2018-Jun-09 05:31N 29°47' W 092°07'2 4.3
2018-Jun-09 05:00N 29°47' W 092°09'2 3.7
2018-Jun-09 04:30N 29°47' W 092°12'1 1.7
2018-Jun-09 04:01N 29°47' W 092°12'1 1.5
2018-Jun-09 03:31N 29°47' W 092°13'1 1.8
2018-Jun-09 03:00N 29°48' W 092°14'0 0.2
2018-Jun-09 02:31N 29°48' W 092°14'0 0.2
2018-Jun-09 02:01N 29°48' W 092°14'1 1.6
2018-Jun-09 01:30N 29°48' W 092°15'0 0.0
2018-Jun-09 01:00N 29°48' W 092°15'0 0.3
2018-Jun-09 00:31N 29°48' W 092°15'2 3.8
2018-Jun-09 00:01N 29°49' W 092°17'41 3.9
2018-Jun-08 13:32N 29°56' W 093°04'0 3.3
2018-Jun-08 13:31N 29°56' W 093°04'2 3.9
2018-Jun-08 12:57N 29°56' W 093°07'2 3.5
2018-Jun-08 12:30N 29°56' W 093°08'2 3.1
2018-Jun-08 12:00N 29°57' W 093°10'1 2.6
2018-Jun-08 11:31N 29°58' W 093°11'2 3.1
2018-Jun-08 10:59N 29°59' W 093°12'1 3.1
2018-Jun-08 10:30N 30°00' W 093°13'2 3.2
2018-Jun-08 10:00N 30°01' W 093°14'2 3.3
2018-Jun-08 09:31N 30°02' W 093°16'1 2.3
2018-Jun-08 09:00N 30°04' W 093°16'2 3.7
2018-Jun-08 08:30N 30°05' W 093°17'0 0.9
2018-Jun-08 08:01N 30°05' W 093°18'1 1.1
2018-Jun-08 07:31N 30°06' W 093°18'1 1.5
2018-Jun-08 07:01N 30°06' W 093°19'0 0.1
2018-Jun-08 06:29N 30°06' W 093°19'0 0.0
2018-Jun-08 06:01N 30°06' W 093°19'0 0.0
2018-Jun-08 05:30N 30°06' W 093°19'0 0.0
2018-Jun-08 05:01N 30°06' W 093°19'0 0.0
2018-Jun-08 04:30N 30°06' W 093°19'0 0.0
2018-Jun-08 04:00N 30°06' W 093°19'0 0.0
2018-Jun-08 03:28N 30°06' W 093°19'0 0.0
2018-Jun-08 02:59N 30°06' W 093°19'0 0.0
2018-Jun-08 02:31N 30°06' W 093°19'0 0.0
2018-Jun-08 02:01N 30°06' W 093°19'0 0.0
2018-Jun-08 01:30N 30°06' W 093°19'0 0.0
2018-Jun-08 00:59N 30°06' W 093°19'0 0.0
2018-Jun-08 00:30N 30°06' W 093°19'0 0.0
2018-Jun-08 00:01N 30°06' W 093°19'0 0.0
2018-Jun-07 23:31N 30°06' W 093°19'0 0.0
2018-Jun-07 23:01N 30°06' W 093°19'1 2.4
2018-Jun-07 22:30N 30°05' W 093°20'2 3.9
2018-Jun-07 22:01N 30°04' W 093°21'2 4.3
2018-Jun-07 21:31N 30°04' W 093°24'3 5.4
2018-Jun-07 21:00N 30°04' W 093°27'3 5.2
2018-Jun-07 20:31N 30°04' W 093°30'3 5.3
2018-Jun-07 19:54N 30°04' W 093°33'2 5.4
2018-Jun-07 19:28N 30°04' W 093°36'3 6.0
2018-Jun-07 18:59N 30°04' W 093°40'3 5.6
2018-Jun-07 18:30N 30°03' W 093°43'3 5.6
2018-Jun-07 18:01N 30°01' W 093°45'3 6.7
2018-Jun-07 17:30N 29°59' W 093°48'3 5.9
2018-Jun-07 17:01N 29°58' W 093°51'4 7.1
2018-Jun-07 16:31N 29°55' W 093°53'3 6.7
2018-Jun-07 16:01N 29°53' W 093°56'3 6.3
2018-Jun-07 15:30N 29°50' W 093°57'2 3.4
2018-Jun-07 15:00N 29°49' W 093°59'2 3.5
2018-Jun-07 14:30N 29°48' W 094°01'2 4.8
2018-Jun-07 14:01N 29°46' W 094°03'2 4.9
2018-Jun-07 13:31N 29°45' W 094°05'3 5.0
2018-Jun-07 13:00N 29°43' W 094°07'3 5.1
2018-Jun-07 12:30N 29°42' W 094°09'2 4.7
2018-Jun-07 12:01N 29°41' W 094°12'2 4.9
2018-Jun-07 11:30N 29°40' W 094°14'2 5.0
2018-Jun-07 11:01N 29°39' W 094°17'2 4.0
2018-Jun-07 10:29N 29°38' W 094°19'4 4.2
2018-Jun-07 09:33N 29°36' W 094°23'0 4.0
2018-Jun-07 09:30N 29°36' W 094°23'3 2.6
2018-Jun-07 08:24N 29°34' W 094°26'12 4.6
2018-Jun-07 05:42N 29°28' W 094°39'1 5.3
2018-Jun-07 05:29N 29°28' W 094°40'2 2.7
2018-Jun-07 04:50N 29°27' W 094°42'3 3.1
2018-Jun-07 03:58N 29°25' W 094°44'2 3.1
2018-Jun-07 03:19N 29°24' W 094°46'2 5.0
2018-Jun-07 02:52N 29°22' W 094°47'2 5.5
2018-Jun-07 02:28N 29°24' W 094°49'11 7.5
2018-Jun-07 01:04N 29°33' W 094°55'1 7.8
2018-Jun-07 00:59N 29°34' W 094°55'5 7.6
2018-Jun-07 00:22N 29°38' W 094°58'3 7.6
2018-Jun-07 00:00N 29°40' W 094°59'11 0.8
2018-Jun-06 10:17N 29°45' W 095°11'0 0.0
2018-Jun-06 09:22N 29°45' W 095°11'0 0.0
2018-Jun-06 08:54N 29°45' W 095°11'0 0.0
2018-Jun-06 08:26N 29°45' W 095°11'0 0.0
2018-Jun-06 07:51N 29°45' W 095°11'0 0.0
2018-Jun-06 06:12N 29°45' W 095°11'0 0.0
2018-Jun-06 05:52N 29°45' W 095°11'0 0.0
2018-Jun-06 05:26N 29°45' W 095°11'0 0.0
2018-Jun-06 04:35N 29°45' W 095°11'0 0.1
2018-Jun-06 04:27N 29°45' W 095°11'  
2018-Jun-03 12:59N 29°47' W 095°05'0 0.0
2018-Jun-03 12:27N 29°47' W 095°05'0 0.0
2018-Jun-03 09:52N 29°47' W 095°05'0 0.0
2018-Jun-03 09:23N 29°47' W 095°05'0 0.0
2018-Jun-03 08:58N 29°47' W 095°05'0 0.0
2018-Jun-03 08:28N 29°47' W 095°05'0 0.0
2018-Jun-03 07:59N 29°47' W 095°05'0 0.0
2018-Jun-03 07:30N 29°47' W 095°05'0 0.0
2018-Jun-03 07:00N 29°47' W 095°05'0 0.0
2018-Jun-03 06:25N 29°47' W 095°05'0 0.0
2018-Jun-03 05:59N 29°47' W 095°05'0 0.0
2018-Jun-03 05:30N 29°47' W 095°05'0 0.0
2018-Jun-03 05:00N 29°47' W 095°05'0 0.0
2018-Jun-03 04:27N 29°47' W 095°05'0 0.0
2018-Jun-03 03:59N 29°47' W 095°05'0 0.0
2018-Jun-03 03:30N 29°47' W 095°05'2 0.1
2018-Jun-02 01:38N 29°46' W 095°05'2 5.9
2018-Jun-02 01:14N 29°44' W 095°03'2 5.4
2018-Jun-02 00:55N 29°43' W 095°01'2 5.3
2018-Jun-02 00:30N 29°42' W 094°59'3 5.9
2018-Jun-02 00:00N 29°39' W 094°58'3 6.1
2018-Jun-01 23:30N 29°36' W 094°57'3 6.2
2018-Jun-01 23:00N 29°33' W 094°55'3 6.1
2018-Jun-01 22:30N 29°31' W 094°53'5 6.3
2018-Jun-01 21:47N 29°27' W 094°50'  

Dump ship's entire track history